createdAt,value
2023-02-03T00:00:21.943Z,9.40
2023-02-03T00:02:48.692Z,9.40
2023-02-03T00:05:15.656Z,9.40
2023-02-03T00:07:44.527Z,9.40
2023-02-03T00:10:11.407Z,9.40
2023-02-03T00:12:38.307Z,9.30
2023-02-03T00:15:05.505Z,9.30
2023-02-03T00:17:32.334Z,9.30
2023-02-03T00:19:59.139Z,9.30
2023-02-03T00:22:25.795Z,9.30
2023-02-03T00:24:52.706Z,9.30
2023-02-03T00:27:19.701Z,9.30
2023-02-03T00:29:46.449Z,9.40
2023-02-03T00:32:13.252Z,9.40
2023-02-03T00:34:42.497Z,9.50
2023-02-03T00:37:09.246Z,9.50
2023-02-03T00:39:36.994Z,9.50
2023-02-03T00:42:04.358Z,9.60
2023-02-03T00:44:31.440Z,9.60
2023-02-03T00:46:58.356Z,9.60
2023-02-03T00:49:25.294Z,9.60
2023-02-03T00:51:52.498Z,9.70
2023-02-03T00:54:19.188Z,9.70
2023-02-03T00:56:45.884Z,9.70
2023-02-03T00:59:12.671Z,9.70
2023-02-03T01:01:39.628Z,9.80
2023-02-03T01:04:06.357Z,9.80
2023-02-03T01:06:33.189Z,9.80
2023-02-03T01:09:01.576Z,9.80
2023-02-03T01:11:28.404Z,9.20
2023-02-03T01:13:55.905Z,9.80
2023-02-03T01:16:23.245Z,9.80
2023-02-03T01:18:50.101Z,9.80
2023-02-03T01:21:18.182Z,9.80
2023-02-03T01:23:45.021Z,9.90
2023-02-03T01:26:13.014Z,9.90
2023-02-03T01:28:39.828Z,9.90
2023-02-03T01:31:13.740Z,9.90
2023-02-03T01:33:41.172Z,9.90
2023-02-03T01:36:11.385Z,9.90
2023-02-03T01:38:38.423Z,10.00
2023-02-03T01:41:05.887Z,10.00
2023-02-03T01:43:36.685Z,10.00
2023-02-03T01:46:05.573Z,10.00
2023-02-03T01:48:33.218Z,10.00
2023-02-03T01:51:03.083Z,10.00
2023-02-03T01:53:29.877Z,10.10
2023-02-03T01:55:56.918Z,10.10
2023-02-03T01:58:27.958Z,10.00
2023-02-03T02:00:55.826Z,10.10
2023-02-03T02:03:24.087Z,10.00
2023-02-03T02:05:52.667Z,10.00
2023-02-03T02:08:19.920Z,10.00
2023-02-03T02:10:46.910Z,10.00
2023-02-03T02:13:13.768Z,10.00
2023-02-03T02:15:47.235Z,10.00
2023-02-03T02:18:13.987Z,10.00
2023-02-03T02:20:49.357Z,10.00
2023-02-03T02:23:16.386Z,10.00
2023-02-03T02:25:46.316Z,10.00
2023-02-03T02:28:25.221Z,9.90
2023-02-03T02:31:24.644Z,10.00
2023-02-03T02:34:21.598Z,9.90
2023-02-03T02:37:02.356Z,9.90
2023-02-03T02:39:48.181Z,9.90
2023-02-03T02:42:17.872Z,10.20
2023-02-03T02:44:46.840Z,9.90
2023-02-03T02:47:18.160Z,9.90
2023-02-03T02:49:47.389Z,9.90
2023-02-03T02:52:14.872Z,9.90
2023-02-03T02:54:42.271Z,9.90
2023-02-03T02:57:10.763Z,9.90
2023-02-03T02:59:38.370Z,9.90
2023-02-03T03:02:05.132Z,9.40
2023-02-03T03:04:32.166Z,9.90
2023-02-03T03:07:03.687Z,9.90
2023-02-03T03:09:36.342Z,10.00
2023-02-03T03:12:06.094Z,10.00
2023-02-03T03:14:32.857Z,10.00
2023-02-03T03:17:03.398Z,10.00
2023-02-03T03:19:32.676Z,10.00
2023-02-03T03:22:03.735Z,10.00
2023-02-03T03:24:32.937Z,10.00
2023-02-03T03:27:08.049Z,10.00
2023-02-03T03:29:42.362Z,9.80
2023-02-03T03:32:09.108Z,10.00
2023-02-03T03:34:36.263Z,9.90
2023-02-03T03:37:18.528Z,9.90
2023-02-03T03:39:45.574Z,9.90
2023-02-03T03:42:18.863Z,9.90
2023-02-03T03:44:51.935Z,9.90
2023-02-03T03:47:25.364Z,9.40
2023-02-03T03:49:52.264Z,9.80
2023-02-03T03:52:20.506Z,9.80
2023-02-03T03:54:47.485Z,9.80
2023-02-03T03:57:16.193Z,9.80
2023-02-03T03:59:44.492Z,9.80
2023-02-03T04:02:11.904Z,9.80
2023-02-03T04:04:38.924Z,10.00
2023-02-03T04:07:05.733Z,9.80
2023-02-03T04:09:32.740Z,9.70
2023-02-03T04:12:02.656Z,9.70
2023-02-03T04:14:30.529Z,9.70
2023-02-03T04:16:57.978Z,9.70
2023-02-03T04:19:25.031Z,9.70
2023-02-03T04:21:52.125Z,9.60
2023-02-03T04:24:18.869Z,9.70
2023-02-03T04:26:46.083Z,9.60
2023-02-03T04:29:12.961Z,9.60
2023-02-03T04:31:39.914Z,9.50
2023-02-03T04:34:06.612Z,9.30
2023-02-03T04:36:33.624Z,9.50
2023-02-03T04:39:00.379Z,9.50
2023-02-03T04:41:27.367Z,9.40
2023-02-03T04:43:54.214Z,9.40
2023-02-03T04:46:21.047Z,9.40
2023-02-03T04:48:48.014Z,9.40
2023-02-03T04:51:15.012Z,9.40
2023-02-03T04:53:41.867Z,9.40
2023-02-03T04:56:08.913Z,9.40
2023-02-03T04:58:36.462Z,9.40
2023-02-03T05:01:07.319Z,9.30
2023-02-03T05:03:34.131Z,9.40
2023-02-03T05:06:01.239Z,9.30
2023-02-03T05:08:28.118Z,9.40
2023-02-03T05:10:54.926Z,9.40
2023-02-03T05:13:22.112Z,9.40
2023-02-03T05:15:49.091Z,9.40
2023-02-03T05:18:16.100Z,9.50
2023-02-03T05:20:42.892Z,9.50
2023-02-03T05:23:09.963Z,9.60
2023-02-03T05:25:36.954Z,9.50
2023-02-03T05:28:03.950Z,9.60
2023-02-03T05:30:30.922Z,9.50
2023-02-03T05:32:58.049Z,9.50
2023-02-03T05:35:24.898Z,9.50
2023-02-03T05:37:51.689Z,9.50
2023-02-03T05:40:37.180Z,9.40
2023-02-03T05:43:04.124Z,9.40
2023-02-03T05:45:32.206Z,9.10
2023-02-03T05:47:59.068Z,9.40
2023-02-03T05:50:27.391Z,9.40
2023-02-03T05:52:54.361Z,9.40
2023-02-03T05:55:21.819Z,9.30
2023-02-03T05:57:48.777Z,9.30
2023-02-03T06:00:15.965Z,9.30
2023-02-03T06:02:42.797Z,9.30
2023-02-03T06:05:09.860Z,9.30
2023-02-03T06:07:37.186Z,9.30
2023-02-03T06:10:04.420Z,9.40
2023-02-03T06:12:31.466Z,9.40
2023-02-03T06:14:59.347Z,9.30
2023-02-03T06:17:26.119Z,9.40
2023-02-03T06:19:52.915Z,9.40
2023-02-03T06:22:19.704Z,9.40
2023-02-03T06:24:48.349Z,9.30
2023-02-03T06:27:15.337Z,9.40
2023-02-03T06:29:42.362Z,9.40
2023-02-03T06:32:09.442Z,9.50
2023-02-03T06:34:36.335Z,9.40
2023-02-03T06:37:03.157Z,9.40
2023-02-03T06:39:30.023Z,9.80
2023-02-03T06:41:56.960Z,9.40
2023-02-03T06:44:23.726Z,9.30
2023-02-03T06:46:50.939Z,8.90
2023-02-03T06:49:18.415Z,9.40
2023-02-03T06:51:45.632Z,10.10
2023-02-03T06:54:12.667Z,9.30
2023-02-03T06:56:40.977Z,9.50
2023-02-03T06:59:09.055Z,9.30
2023-02-03T07:01:36.691Z,9.30
2023-02-03T07:04:03.833Z,9.40
2023-02-03T07:06:34.091Z,9.30
2023-02-03T07:09:01.980Z,9.40
2023-02-03T07:11:28.909Z,10.20
2023-02-03T07:13:56.769Z,9.40
2023-02-03T07:16:23.756Z,9.40
2023-02-03T07:18:50.477Z,9.30
2023-02-03T07:21:17.532Z,9.40
2023-02-03T07:23:46.534Z,9.40
2023-02-03T07:26:13.732Z,9.30
2023-02-03T07:28:40.536Z,9.30
2023-02-03T07:31:10.984Z,9.30
2023-02-03T07:33:38.348Z,9.30
2023-02-03T07:36:05.714Z,9.30
2023-02-03T07:38:32.506Z,9.30
2023-02-03T07:40:59.681Z,9.20
2023-02-03T07:43:26.782Z,9.20
2023-02-03T07:45:54.481Z,9.20
2023-02-03T07:48:21.955Z,9.30
2023-02-03T07:50:49.940Z,9.30
2023-02-03T07:53:17.248Z,9.20
2023-02-03T07:55:44.294Z,9.20
2023-02-03T07:58:11.411Z,9.20
2023-02-03T08:00:38.466Z,9.20
2023-02-03T08:03:05.870Z,9.20
2023-02-03T08:05:32.943Z,9.20
2023-02-03T08:08:00.826Z,9.20
2023-02-03T08:10:28.008Z,9.20
2023-02-03T08:12:55.548Z,9.30
2023-02-03T08:15:22.465Z,10.10
2023-02-03T08:17:49.645Z,9.30
2023-02-03T08:20:17.228Z,9.30
2023-02-03T08:22:46.731Z,9.30
2023-02-03T08:25:13.624Z,9.30
2023-02-03T08:27:40.921Z,8.70
2023-02-03T08:30:08.643Z,9.30
2023-02-03T08:32:36.842Z,9.30
2023-02-03T08:35:04.866Z,9.30
2023-02-03T08:37:33.081Z,9.30
2023-02-03T08:40:00.255Z,9.40
2023-02-03T08:42:27.295Z,9.40
2023-02-03T08:44:54.119Z,9.50
2023-02-03T08:47:21.015Z,9.50
2023-02-03T08:49:48.041Z,9.50
2023-02-03T08:52:17.336Z,9.50
2023-02-03T08:54:46.015Z,9.60
2023-02-03T08:57:14.090Z,9.60
2023-02-03T08:59:52.706Z,9.70
2023-02-03T09:02:20.978Z,9.70
2023-02-03T09:04:49.429Z,9.70
2023-02-03T09:07:19.824Z,9.80
2023-02-03T09:09:46.834Z,9.80
2023-02-03T09:12:14.215Z,9.90
2023-02-03T09:14:41.817Z,9.90
2023-02-03T09:17:09.202Z,9.90
2023-02-03T09:19:36.819Z,9.90
2023-02-03T09:22:04.357Z,10.00
2023-02-03T09:24:32.008Z,10.00
2023-02-03T09:27:01.181Z,10.00
2023-02-03T09:29:28.653Z,10.10
2023-02-03T09:31:55.599Z,10.10
2023-02-03T09:34:23.507Z,10.10
2023-02-03T09:36:51.622Z,10.10
2023-02-03T09:39:24.373Z,10.20
2023-02-03T09:42:04.895Z,10.20
2023-02-03T09:44:52.454Z,10.20
2023-02-03T09:47:21.731Z,10.30
2023-02-03T09:49:52.601Z,10.30
2023-02-03T09:52:19.583Z,10.40
2023-02-03T09:55:01.567Z,10.50
2023-02-03T09:57:29.368Z,10.50
2023-02-03T09:59:58.232Z,10.50
2023-02-03T10:02:57.952Z,10.60
2023-02-03T10:05:35.419Z,10.70
2023-02-03T10:08:08.654Z,10.70
2023-02-03T10:10:38.406Z,10.80
2023-02-03T10:13:06.899Z,10.80
2023-02-03T10:15:52.700Z,10.90
2023-02-03T10:18:46.115Z,10.90
2023-02-03T10:21:14.672Z,11.00
2023-02-03T10:23:41.848Z,11.10
2023-02-03T10:26:20.932Z,11.10
2023-02-03T10:28:56.645Z,11.20
2023-02-03T10:31:28.209Z,11.30
2023-02-03T10:34:02.402Z,11.30
2023-02-03T10:36:56.149Z,11.30
2023-02-03T10:39:41.976Z,11.40
2023-02-03T10:42:09.026Z,11.40
2023-02-03T10:44:37.612Z,11.40
2023-02-03T10:47:38.612Z,11.40
2023-02-03T10:50:34.615Z,11.50
2023-02-03T10:53:21.202Z,11.50
2023-02-03T10:56:02.915Z,11.50
2023-02-03T10:58:31.569Z,11.50
2023-02-03T11:01:15.445Z,11.40
2023-02-03T11:03:43.868Z,11.60
2023-02-03T11:06:10.948Z,11.70
2023-02-03T11:08:38.950Z,11.80
2023-02-03T11:11:06.995Z,11.80
2023-02-03T11:13:34.262Z,11.90
2023-02-03T11:16:21.736Z,12.00
2023-02-03T11:18:54.672Z,12.00
2023-02-03T11:21:23.282Z,12.30
2023-02-03T11:23:56.700Z,12.40
2023-02-03T11:26:48.901Z,12.70
2023-02-03T11:29:36.061Z,12.90
2023-02-03T11:32:23.615Z,13.20
2023-02-03T11:34:57.871Z,13.30
2023-02-03T11:37:27.305Z,13.30
2023-02-03T11:40:12.684Z,13.30
2023-02-03T11:42:41.948Z,13.10
2023-02-03T11:45:18.372Z,12.70
2023-02-03T11:47:46.511Z,12.70
2023-02-03T11:50:19.570Z,12.90
2023-02-03T11:52:46.467Z,12.90
2023-02-03T11:55:27.262Z,12.90
2023-02-03T11:58:00.392Z,12.90
2023-02-03T12:00:43.221Z,12.80
2023-02-03T12:03:16.978Z,12.90
2023-02-03T12:05:53.875Z,12.90
2023-02-03T12:08:33.458Z,12.90
2023-02-03T12:11:16.955Z,12.90
2023-02-03T12:13:43.979Z,12.90
2023-02-03T12:16:16.379Z,13.00
2023-02-03T12:19:13.741Z,13.10
2023-02-03T12:21:44.773Z,13.20
2023-02-03T12:24:17.296Z,13.20
2023-02-03T12:26:51.709Z,13.30
2023-02-03T12:29:24.042Z,13.30
2023-02-03T12:31:57.523Z,13.30
2023-02-03T12:34:33.717Z,13.40
2023-02-03T12:37:24.442Z,13.40
2023-02-03T12:39:57.627Z,13.40
2023-02-03T12:42:26.515Z,13.20
2023-02-03T12:45:10.561Z,13.50
2023-02-03T12:47:53.798Z,13.60
2023-02-03T12:50:30.860Z,13.70
2023-02-03T12:52:57.918Z,13.70
2023-02-03T12:55:27.811Z,13.60
2023-02-03T12:57:58.387Z,13.70
2023-02-03T13:00:31.029Z,13.70
2023-02-03T13:03:01.286Z,13.70
2023-02-03T13:05:49.215Z,13.70
2023-02-03T13:08:23.119Z,13.70
2023-02-03T13:10:53.384Z,13.70
2023-02-03T13:13:24.080Z,13.60
2023-02-03T13:15:53.175Z,13.60
2023-02-03T13:18:26.689Z,13.60
2023-02-03T13:20:58.193Z,13.60
2023-02-03T13:23:25.551Z,13.60
2023-02-03T13:26:15.307Z,13.60
2023-02-03T13:28:45.186Z,13.60
2023-02-03T13:31:22.465Z,13.60
2023-02-03T13:33:55.825Z,13.70
2023-02-03T13:36:41.701Z,13.70
2023-02-03T13:39:11.563Z,13.80
2023-02-03T13:41:55.143Z,13.80
2023-02-03T13:44:25.475Z,14.00
2023-02-03T13:46:53.068Z,13.90
2023-02-03T13:49:24.807Z,13.90
2023-02-03T13:51:51.754Z,13.80
2023-02-03T13:54:29.072Z,13.80
2023-02-03T13:56:57.804Z,13.80
2023-02-03T13:59:43.967Z,13.80
2023-02-03T14:02:20.121Z,13.80
2023-02-03T14:04:47.287Z,13.80
2023-02-03T14:07:34.596Z,13.80
2023-02-03T14:10:15.553Z,13.80
2023-02-03T14:12:55.577Z,13.70
2023-02-03T14:15:26.050Z,13.80
2023-02-03T14:17:53.592Z,13.80
2023-02-03T14:20:40.510Z,13.80
2023-02-03T14:25:58.982Z,13.90
2023-02-03T14:28:38.883Z,14.00
2023-02-03T14:31:18.894Z,13.50
2023-02-03T14:33:48.641Z,14.00
2023-02-03T14:36:28.520Z,14.00
2023-02-03T14:38:56.190Z,13.90
2023-02-03T14:41:28.846Z,13.90
2023-02-03T14:44:01.424Z,14.10
2023-02-03T14:46:36.381Z,13.90
2023-02-03T14:49:09.257Z,13.90
2023-02-03T14:51:55.142Z,13.80
2023-02-03T14:54:28.233Z,12.80
2023-02-03T14:57:18.206Z,13.70
2023-02-03T14:59:49.609Z,13.30
2023-02-03T15:02:20.916Z,13.60
2023-02-03T15:04:50.624Z,13.60
2023-02-03T15:07:37.043Z,13.50
2023-02-03T15:10:04.488Z,13.40
2023-02-03T15:12:34.511Z,13.40
2023-02-03T15:15:23.984Z,13.30
2023-02-03T15:17:51.309Z,13.30
2023-02-03T15:20:26.048Z,13.30
2023-02-03T15:22:53.114Z,13.30
2023-02-03T15:25:21.699Z,13.20
2023-02-03T15:27:48.927Z,13.20
2023-02-03T15:30:16.657Z,13.20
2023-02-03T15:32:46.123Z,13.10
2023-02-03T15:35:17.626Z,13.10
2023-02-03T15:37:48.383Z,13.00
2023-02-03T15:40:20.476Z,13.00
2023-02-03T15:43:00.335Z,12.90
2023-02-03T15:45:29.091Z,12.80
2023-02-03T15:48:03.617Z,12.80
2023-02-03T15:50:36.735Z,12.70
2023-02-03T15:53:26.240Z,12.90
2023-02-03T15:55:55.430Z,12.70
2023-02-03T15:58:26.526Z,12.70
2023-02-03T16:01:00.783Z,12.70
2023-02-03T16:03:31.079Z,12.70
2023-02-03T16:05:58.421Z,12.60
2023-02-03T16:08:36.567Z,12.70
2023-02-03T16:11:22.406Z,12.60
2023-02-03T16:13:49.489Z,12.50
2023-02-03T16:16:18.061Z,12.50
2023-02-03T16:18:58.383Z,12.40
2023-02-03T16:21:25.959Z,12.30
2023-02-03T16:23:53.147Z,12.30
2023-02-03T16:26:21.142Z,12.20
2023-02-03T16:29:14.253Z,12.20
2023-02-03T16:32:04.390Z,12.10
2023-02-03T16:34:50.322Z,12.10
2023-02-03T16:37:46.174Z,12.10
2023-02-03T16:40:32.455Z,12.00
2023-02-03T16:43:18.124Z,12.00
2023-02-03T16:46:04.026Z,11.90
2023-02-03T16:48:49.733Z,11.90
2023-02-03T16:51:16.830Z,11.80
2023-02-03T16:53:45.467Z,11.80
2023-02-03T16:56:12.616Z,11.80
2023-02-03T16:58:39.668Z,11.70
2023-02-03T17:01:07.905Z,11.70
2023-02-03T17:03:35.327Z,11.60
2023-02-03T17:06:03.208Z,11.50
2023-02-03T17:08:30.086Z,11.80
2023-02-03T17:11:02.861Z,11.60
2023-02-03T17:13:32.367Z,11.60
2023-02-03T17:15:59.323Z,11.60
2023-02-03T17:18:26.594Z,11.60
2023-02-03T17:20:53.581Z,11.60
2023-02-03T17:23:20.499Z,11.60
2023-02-03T17:25:48.066Z,11.50
2023-02-03T17:28:16.250Z,11.00
2023-02-03T17:30:46.414Z,11.50
2023-02-03T17:33:13.512Z,11.50
2023-02-03T17:35:47.121Z,11.40
2023-02-03T17:38:15.071Z,11.40
2023-02-03T17:58:27.722Z,11.20
2023-02-03T18:01:04.262Z,10.50
2023-02-03T18:03:32.628Z,11.10
2023-02-03T18:06:05.947Z,11.10
2023-02-03T18:08:37.503Z,11.10
2023-02-03T18:11:12.062Z,11.40
2023-02-03T18:13:39.687Z,11.10
2023-02-03T18:16:09.474Z,11.20
2023-02-03T18:18:41.836Z,11.10
2023-02-03T18:21:10.608Z,11.10
2023-02-03T18:23:39.145Z,11.10
2023-02-03T18:26:06.746Z,11.10
2023-02-03T18:28:34.328Z,11.10
2023-02-03T18:31:03.460Z,11.10
2023-02-03T18:33:31.477Z,11.10
2023-02-03T18:35:58.812Z,11.10
2023-02-03T18:38:28.180Z,11.10
2023-02-03T18:40:57.881Z,11.00
2023-02-03T18:45:18.521Z,11.00
2023-02-03T18:46:50.843Z,11.00
2023-02-03T18:49:16.452Z,11.00
2023-02-03T18:51:43.552Z,11.00
2023-02-03T18:54:11.503Z,11.00
2023-02-03T18:56:38.500Z,11.00
2023-02-03T18:59:06.188Z,11.10
2023-02-03T19:01:33.410Z,11.00
2023-02-03T19:04:00.672Z,11.00
2023-02-03T19:06:28.170Z,11.00
2023-02-03T19:08:55.295Z,11.10
2023-02-03T19:11:22.639Z,11.20
2023-02-03T19:13:49.911Z,11.10
2023-02-03T19:16:20.821Z,11.30
2023-02-03T19:18:47.876Z,11.20
2023-02-03T19:21:15.074Z,11.20
2023-02-03T19:23:42.602Z,11.20
2023-02-03T19:26:10.762Z,11.20
2023-02-03T19:28:38.237Z,11.30
2023-02-03T19:31:08.333Z,11.20
2023-02-03T19:33:36.311Z,11.30
2023-02-03T19:36:03.659Z,11.20
2023-02-03T19:38:30.537Z,11.20
2023-02-03T19:41:00.622Z,11.20
2023-02-03T19:43:28.671Z,11.10
2023-02-03T19:45:57.691Z,11.10
2023-02-03T19:48:25.161Z,11.00
2023-02-03T19:50:55.261Z,11.00
2023-02-03T19:53:24.465Z,10.90
2023-02-03T19:55:51.423Z,10.80
2023-02-03T19:58:20.924Z,10.70
2023-02-03T20:00:47.936Z,10.70
2023-02-03T20:03:14.817Z,10.60
2023-02-03T20:05:43.144Z,10.60
2023-02-03T20:08:13.212Z,10.50
2023-02-03T20:10:40.594Z,10.40
2023-02-03T20:13:08.435Z,10.30
2023-02-03T20:15:35.558Z,10.30
2023-02-03T20:18:04.885Z,10.20
2023-02-03T20:20:32.335Z,10.20
2023-02-03T20:22:59.564Z,10.30
2023-02-03T20:25:26.650Z,10.10
2023-02-03T20:27:56.856Z,10.20
2023-02-03T20:30:23.921Z,10.20
2023-02-03T20:32:51.029Z,10.20
2023-02-03T20:35:18.200Z,10.20
2023-02-03T20:37:52.744Z,10.20
2023-02-03T20:40:22.647Z,10.20
2023-02-03T20:42:50.630Z,10.50
2023-02-03T20:45:17.773Z,10.20
2023-02-03T20:47:48.025Z,10.20
2023-02-03T20:50:17.309Z,10.20
2023-02-03T20:52:47.550Z,10.20
2023-02-03T20:55:15.174Z,10.20
2023-02-03T20:57:42.333Z,10.30
2023-02-03T21:00:30.049Z,10.30
2023-02-03T21:03:16.231Z,10.30
2023-02-03T21:05:43.826Z,10.30
2023-02-03T21:08:18.219Z,10.30
2023-02-03T21:10:45.313Z,10.30
2023-02-03T21:13:21.488Z,10.30
2023-02-03T21:15:49.647Z,10.30
2023-02-03T21:18:27.870Z,10.30
2023-02-03T21:20:54.912Z,10.20
2023-02-03T21:23:25.978Z,10.20
2023-02-03T21:25:57.819Z,10.20
2023-02-03T21:28:28.070Z,10.30
2023-02-03T21:30:55.348Z,10.10
2023-02-03T21:33:29.800Z,10.10
2023-02-03T21:35:56.836Z,10.10
2023-02-03T21:38:30.594Z,10.00
2023-02-03T21:40:58.030Z,9.90
2023-02-03T21:43:25.312Z,9.90
2023-02-03T21:45:52.741Z,9.80
2023-02-03T21:48:24.825Z,9.90
2023-02-03T21:50:52.656Z,9.80
2023-02-03T21:53:25.807Z,10.00
2023-02-03T21:55:54.787Z,9.80
2023-02-03T21:58:26.000Z,9.70
2023-02-03T22:01:02.913Z,9.40
2023-02-03T22:03:32.891Z,9.60
2023-02-03T22:06:12.979Z,9.10
2023-02-03T22:08:44.151Z,9.50
2023-02-03T22:11:15.780Z,9.50
2023-02-03T22:13:49.639Z,9.50
2023-02-03T22:16:34.943Z,9.40
2023-02-03T22:19:02.060Z,9.40
2023-02-03T22:21:35.109Z,9.30
2023-02-03T22:24:04.262Z,9.20
2023-02-03T22:26:35.585Z,9.10
2023-02-03T22:29:02.906Z,9.10
2023-02-03T22:31:30.153Z,9.10
2023-02-03T22:33:57.152Z,8.90
2023-02-03T22:36:24.233Z,8.90
2023-02-03T22:38:51.126Z,8.90
2023-02-03T22:41:17.898Z,8.80
2023-02-03T22:43:44.934Z,8.80
2023-02-03T22:46:11.938Z,8.80
2023-02-03T22:48:38.932Z,8.80
2023-02-03T22:51:06.419Z,8.80
2023-02-03T22:53:33.837Z,8.80
2023-02-03T22:56:01.127Z,8.80
2023-02-03T22:58:28.036Z,8.80
2023-02-03T23:00:54.911Z,9.40
2023-02-03T23:03:22.326Z,9.20
2023-02-03T23:05:49.256Z,8.90
2023-02-03T23:08:17.078Z,9.00
2023-02-03T23:10:44.185Z,8.90
2023-02-03T23:13:11.797Z,8.90
2023-02-03T23:15:38.721Z,8.90
2023-02-03T23:18:05.797Z,8.90
2023-02-03T23:20:32.898Z,8.90
2023-02-03T23:22:59.977Z,8.90
2023-02-03T23:25:27.288Z,9.00
2023-02-03T23:27:54.397Z,9.50
2023-02-03T23:30:21.611Z,8.90
2023-02-03T23:32:48.504Z,9.00
2023-02-03T23:35:34.033Z,9.40
2023-02-03T23:38:00.784Z,9.00
2023-02-03T23:40:27.936Z,9.10
2023-02-03T23:42:55.128Z,9.10
2023-02-03T23:45:21.828Z,9.10
2023-02-03T23:47:48.940Z,9.20
2023-02-03T23:50:16.748Z,9.20
2023-02-03T23:52:43.884Z,9.30
2023-02-03T23:55:12.543Z,9.30
2023-02-03T23:57:39.742Z,9.30
